sensor_id;sensor_type;location;lat;lon;timestamp;pressure;altitude;pressure_sealevel;temperature;humidity
73151;BME280;61354;50.758;6.106;2024-01-27T00:02:08;100917.41;;;3.30;98.05
73151;BME280;61354;50.758;6.106;2024-01-27T00:04:52;100924.63;;;3.41;98.62
73151;BME280;61354;50.758;6.106;2024-01-27T00:07:36;100923.03;;;3.50;98.43
73151;BME280;61354;50.758;6.106;2024-01-27T00:10:20;100918.00;;;3.37;99.07
73151;BME280;61354;50.758;6.106;2024-01-27T00:13:04;100921.91;;;3.46;98.63
73151;BME280;61354;50.758;6.106;2024-01-27T00:15:48;100923.31;;;3.54;98.73
73151;BME280;61354;50.758;6.106;2024-01-27T00:18:32;100924.34;;;3.37;98.66
73151;BME280;61354;50.758;6.106;2024-01-27T00:21:16;100922.09;;;3.29;99.48
73151;BME280;61354;50.758;6.106;2024-01-27T00:24:00;100928.44;;;3.40;99.43
73151;BME280;61354;50.758;6.106;2024-01-27T00:26:47;100926.78;;;3.34;99.12
73151;BME280;61354;50.758;6.106;2024-01-27T00:29:31;100929.00;;;3.37;99.84
73151;BME280;61354;50.758;6.106;2024-01-27T00:32:14;100925.19;;;3.48;98.42
73151;BME280;61354;50.758;6.106;2024-01-27T00:34:58;100937.25;;;3.42;99.04
73151;BME280;61354;50.758;6.106;2024-01-27T00:37:42;100941.13;;;3.46;98.74
73151;BME280;61354;50.758;6.106;2024-01-27T00:40:26;100926.28;;;3.42;98.57
73151;BME280;61354;50.758;6.106;2024-01-27T00:43:10;100940.66;;;3.64;97.80
73151;BME280;61354;50.758;6.106;2024-01-27T00:45:54;100942.84;;;3.62;98.36
73151;BME280;61354;50.758;6.106;2024-01-27T00:48:38;100941.72;;;3.53;98.29
73151;BME280;61354;50.758;6.106;2024-01-27T00:51:22;100941.06;;;3.36;98.46
73151;BME280;61354;50.758;6.106;2024-01-27T00:54:06;100942.53;;;3.48;98.54
73151;BME280;61354;50.758;6.106;2024-01-27T00:56:50;100944.91;;;3.40;98.87
73151;BME280;61354;50.758;6.106;2024-01-27T00:59:33;100954.78;;;3.36;98.75
73151;BME280;61354;50.758;6.106;2024-01-27T01:02:17;100953.63;;;3.27;99.43
73151;BME280;61354;50.758;6.106;2024-01-27T01:05:01;100956.63;;;3.20;99.96
73151;BME280;61354;50.758;6.106;2024-01-27T01:07:47;100951.97;;;3.20;100.00
73151;BME280;61354;50.758;6.106;2024-01-27T01:10:31;100951.69;;;3.22;100.00
73151;BME280;61354;50.758;6.106;2024-01-27T01:13:16;100955.38;;;3.43;99.52
73151;BME280;61354;50.758;6.106;2024-01-27T01:16:00;100959.78;;;3.44;99.39
73151;BME280;61354;50.758;6.106;2024-01-27T01:18:44;100953.47;;;3.43;98.75
73151;BME280;61354;50.758;6.106;2024-01-27T01:21:28;100957.59;;;3.41;99.37
73151;BME280;61354;50.758;6.106;2024-01-27T01:24:12;100958.72;;;3.50;98.96
73151;BME280;61354;50.758;6.106;2024-01-27T01:26:56;100964.75;;;3.52;99.13
73151;BME280;61354;50.758;6.106;2024-01-27T01:29:40;100957.59;;;3.41;98.20
73151;BME280;61354;50.758;6.106;2024-01-27T01:32:24;100967.31;;;3.16;99.77
73151;BME280;61354;50.758;6.106;2024-01-27T01:35:09;100968.94;;;3.17;100.00
73151;BME280;61354;50.758;6.106;2024-01-27T01:37:54;100966.78;;;3.19;99.84
73151;BME280;61354;50.758;6.106;2024-01-27T01:40:38;100974.56;;;3.33;99.03
73151;BME280;61354;50.758;6.106;2024-01-27T01:43:22;100966.41;;;3.11;100.00
73151;BME280;61354;50.758;6.106;2024-01-27T01:46:07;100965.66;;;3.15;100.00
73151;BME280;61354;50.758;6.106;2024-01-27T01:48:51;100979.78;;;2.97;100.00
73151;BME280;61354;50.758;6.106;2024-01-27T01:51:35;100980.38;;;3.04;100.00
73151;BME280;61354;50.758;6.106;2024-01-27T01:54:20;100969.63;;;2.97;100.00
73151;BME280;61354;50.758;6.106;2024-01-27T01:57:06;100976.81;;;3.46;100.00
73151;BME280;61354;50.758;6.106;2024-01-27T01:59:50;100964.88;;;3.25;100.00
73151;BME280;61354;50.758;6.106;2024-01-27T02:02:34;100975.06;;;3.24;99.84
73151;BME280;61354;50.758;6.106;2024-01-27T02:05:18;100971.41;;;3.19;100.00
73151;BME280;61354;50.758;6.106;2024-01-27T02:08:02;100975.06;;;3.30;99.68
73151;BME280;61354;50.758;6.106;2024-01-27T02:10:47;100974.59;;;3.01;100.00
73151;BME280;61354;50.758;6.106;2024-01-27T02:13:31;100967.34;;;2.89;100.00
73151;BME280;61354;50.758;6.106;2024-01-27T02:16:15;100963.34;;;3.02;100.00
73151;BME280;61354;50.758;6.106;2024-01-27T02:19:01;100965.56;;;3.05;100.00
73151;BME280;61354;50.758;6.106;2024-01-27T02:21:45;100965.56;;;3.05;100.00
73151;BME280;61354;50.758;6.106;2024-01-27T02:24:29;100974.97;;;3.14;100.00
73151;BME280;61354;50.758;6.106;2024-01-27T02:27:13;100974.13;;;3.14;100.00
73151;BME280;61354;50.758;6.106;2024-01-27T02:29:57;100982.13;;;3.15;100.00
73151;BME280;61354;50.758;6.106;2024-01-27T02:32:41;100983.63;;;3.86;97.46
73151;BME280;61354;50.758;6.106;2024-01-27T02:35:24;100973.66;;;3.69;97.03
73151;BME280;61354;50.758;6.106;2024-01-27T02:38:08;100979.47;;;3.78;96.95
73151;BME280;61354;50.758;6.106;2024-01-27T02:40:53;100982.06;;;3.10;99.08
73151;BME280;61354;50.758;6.106;2024-01-27T02:43:37;100973.25;;;3.03;100.00
73151;BME280;61354;50.758;6.106;2024-01-27T02:46:21;100967.19;;;3.01;100.00
73151;BME280;61354;50.758;6.106;2024-01-27T02:49:05;100960.59;;;3.02;100.00
73151;BME280;61354;50.758;6.106;2024-01-27T02:51:49;100968.84;;;3.02;100.00
73151;BME280;61354;50.758;6.106;2024-01-27T02:54:33;100977.88;;;3.40;99.83
73151;BME280;61354;50.758;6.106;2024-01-27T02:57:17;100968.50;;;2.93;99.56
73151;BME280;61354;50.758;6.106;2024-01-27T03:00:04;100975.53;;;3.16;100.00
73151;BME280;61354;50.758;6.106;2024-01-27T03:02:49;100978.75;;;3.03;99.12
73151;BME280;61354;50.758;6.106;2024-01-27T03:05:32;100966.97;;;3.08;99.44
73151;BME280;61354;50.758;6.106;2024-01-27T03:08:17;100961.53;;;3.18;98.71
73151;BME280;61354;50.758;6.106;2024-01-27T03:11:00;100957.94;;;3.12;99.00
73151;BME280;61354;50.758;6.106;2024-01-27T03:13:44;100969.41;;;3.04;99.02
73151;BME280;61354;50.758;6.106;2024-01-27T03:16:29;100962.56;;;3.07;98.73
73151;BME280;61354;50.758;6.106;2024-01-27T03:19:13;100970.94;;;2.90;99.84
73151;BME280;61354;50.758;6.106;2024-01-27T03:21:58;100965.78;;;2.98;99.88
73151;BME280;61354;50.758;6.106;2024-01-27T03:24:42;100965.88;;;3.09;99.13
73151;BME280;61354;50.758;6.106;2024-01-27T03:27:26;100966.88;;;2.97;98.79
73151;BME280;61354;50.758;6.106;2024-01-27T03:30:11;100961.16;;;2.99;99.25
73151;BME280;61354;50.758;6.106;2024-01-27T03:32:55;100966.09;;;3.02;98.75
73151;BME280;61354;50.758;6.106;2024-01-27T03:35:39;100967.16;;;2.96;99.10
73151;BME280;61354;50.758;6.106;2024-01-27T03:38:23;100964.38;;;2.91;99.96
73151;BME280;61354;50.758;6.106;2024-01-27T03:41:07;100964.97;;;2.98;100.00
73151;BME280;61354;50.758;6.106;2024-01-27T03:43:51;100975.88;;;2.88;100.00
73151;BME280;61354;50.758;6.106;2024-01-27T03:46:35;100967.34;;;2.89;100.00
73151;BME280;61354;50.758;6.106;2024-01-27T03:49:21;100965.44;;;2.90;99.25
73151;BME280;61354;50.758;6.106;2024-01-27T03:52:05;100968.72;;;2.87;98.94
73151;BME280;61354;50.758;6.106;2024-01-27T03:54:49;100973.66;;;2.90;98.78
73151;BME280;61354;50.758;6.106;2024-01-27T03:57:32;100973.44;;;2.91;99.73
73151;BME280;61354;50.758;6.106;2024-01-27T04:00:17;100982.00;;;3.00;99.72
73151;BME280;61354;50.758;6.106;2024-01-27T04:03:02;100982.56;;;3.02;98.96
73151;BME280;61354;50.758;6.106;2024-01-27T04:05:46;100978.13;;;2.96;99.05
73151;BME280;61354;50.758;6.106;2024-01-27T04:08:30;100975.41;;;3.01;98.72
73151;BME280;61354;50.758;6.106;2024-01-27T04:11:21;100976.75;;;2.98;99.37
73151;BME280;61354;50.758;6.106;2024-01-27T04:14:06;100978.75;;;3.03;98.42
73151;BME280;61354;50.758;6.106;2024-01-27T04:16:50;100984.22;;;3.03;98.63
73151;BME280;61354;50.758;6.106;2024-01-27T04:19:33;100994.56;;;2.91;98.43
73151;BME280;61354;50.758;6.106;2024-01-27T04:22:17;100989.09;;;2.96;98.63
73151;BME280;61354;50.758;6.106;2024-01-27T04:25:01;100987.31;;;2.80;99.12
73151;BME280;61354;50.758;6.106;2024-01-27T04:27:46;100987.53;;;2.73;99.98
73151;BME280;61354;50.758;6.106;2024-01-27T04:30:29;100990.88;;;2.80;100.00
73151;BME280;61354;50.758;6.106;2024-01-27T04:33:13;100970.69;;;2.91;99.20
73151;BME280;61354;50.758;6.106;2024-01-27T04:35:58;100984.06;;;2.83;99.18
73151;BME280;61354;50.758;6.106;2024-01-27T04:38:43;100990.88;;;2.80;100.00
73151;BME280;61354;50.758;6.106;2024-01-27T04:41:28;100987.28;;;2.74;99.56
73151;BME280;61354;50.758;6.106;2024-01-27T04:44:11;100982.81;;;2.68;100.00
73151;BME280;61354;50.758;6.106;2024-01-27T04:46:55;100983.34;;;2.65;99.96
73151;BME280;61354;50.758;6.106;2024-01-27T04:49:39;100981.59;;;2.54;100.00
73151;BME280;61354;50.758;6.106;2024-01-27T04:52:23;100989.34;;;2.62;100.00
73151;BME280;61354;50.758;6.106;2024-01-27T04:55:07;100986.25;;;2.54;100.00
73151;BME280;61354;50.758;6.106;2024-01-27T04:57:51;100994.72;;;2.52;100.00
73151;BME280;61354;50.758;6.106;2024-01-27T05:00:35;100999.78;;;2.65;100.00
73151;BME280;61354;50.758;6.106;2024-01-27T05:03:20;100993.56;;;2.70;100.00
73151;BME280;61354;50.758;6.106;2024-01-27T05:06:07;100992.63;;;2.59;100.00
73151;BME280;61354;50.758;6.106;2024-01-27T05:08:52;100983.25;;;2.55;100.00
73151;BME280;61354;50.758;6.106;2024-01-27T05:11:36;100991.13;;;2.46;100.00
73151;BME280;61354;50.758;6.106;2024-01-27T05:14:20;100999.19;;;2.58;100.00
73151;BME280;61354;50.758;6.106;2024-01-27T05:17:04;101000.75;;;2.49;100.00
73151;BME280;61354;50.758;6.106;2024-01-27T05:19:49;100999.66;;;3.14;99.29
73151;BME280;61354;50.758;6.106;2024-01-27T05:22:33;100997.19;;;2.81;98.82
73151;BME280;61354;50.758;6.106;2024-01-27T05:25:17;100992.72;;;2.42;100.00
73151;BME280;61354;50.758;6.106;2024-01-27T05:28:02;101000.84;;;2.59;99.92
73151;BME280;61354;50.758;6.106;2024-01-27T05:30:45;101003.53;;;2.54;100.00
73151;BME280;61354;50.758;6.106;2024-01-27T05:33:29;100993.72;;;2.58;100.00
73151;BME280;61354;50.758;6.106;2024-01-27T05:36:13;101000.28;;;2.57;100.00
73151;BME280;61354;50.758;6.106;2024-01-27T05:38:57;100995.88;;;2.56;100.00
73151;BME280;61354;50.758;6.106;2024-01-27T05:41:41;100985.94;;;2.50;100.00
73151;BME280;61354;50.758;6.106;2024-01-27T05:44:25;100986.09;;;2.38;100.00
73151;BME280;61354;50.758;6.106;2024-01-27T05:47:09;100977.25;;;2.31;100.00
73151;BME280;61354;50.758;6.106;2024-01-27T05:49:54;100978.06;;;2.32;100.00
73151;BME280;61354;50.758;6.106;2024-01-27T05:52:38;100983.72;;;2.47;100.00
73151;BME280;61354;50.758;6.106;2024-01-27T05:55:22;100977.75;;;2.55;100.00
73151;BME280;61354;50.758;6.106;2024-01-27T05:58:06;100977.44;;;2.52;100.00
73151;BME280;61354;50.758;6.106;2024-01-27T06:00:50;100980.03;;;2.63;100.00
73151;BME280;61354;50.758;6.106;2024-01-27T06:03:35;100979.94;;;2.53;100.00
73151;BME280;61354;50.758;6.106;2024-01-27T06:06:19;100976.63;;;2.51;100.00
73151;BME280;61354;50.758;6.106;2024-01-27T06:09:03;100984.06;;;2.56;100.00
73151;BME280;61354;50.758;6.106;2024-01-27T06:11:47;100984.31;;;2.49;100.00
73151;BME280;61354;50.758;6.106;2024-01-27T06:14:31;100996.50;;;2.63;100.00
73151;BME280;61354;50.758;6.106;2024-01-27T06:17:15;100998.97;;;2.65;100.00
73151;BME280;61354;50.758;6.106;2024-01-27T06:20:00;100997.00;;;2.60;100.00
73151;BME280;61354;50.758;6.106;2024-01-27T06:22:44;100998.06;;;2.54;100.00
73151;BME280;61354;50.758;6.106;2024-01-27T06:25:28;101005.28;;;2.65;100.00
73151;BME280;61354;50.758;6.106;2024-01-27T06:28:12;100998.19;;;2.69;100.00
73151;BME280;61354;50.758;6.106;2024-01-27T06:30:56;101000.09;;;2.69;100.00
73151;BME280;61354;50.758;6.106;2024-01-27T06:33:41;101001.97;;;2.63;100.00
73151;BME280;61354;50.758;6.106;2024-01-27T06:36:25;100993.56;;;2.70;100.00
73151;BME280;61354;50.758;6.106;2024-01-27T06:39:11;100996.50;;;2.63;100.00
73151;BME280;61354;50.758;6.106;2024-01-27T06:41:55;100993.25;;;2.66;99.98
73151;BME280;61354;50.758;6.106;2024-01-27T06:44:39;100994.25;;;2.60;100.00
73151;BME280;61354;50.758;6.106;2024-01-27T06:47:24;100997.16;;;2.76;100.00
73151;BME280;61354;50.758;6.106;2024-01-27T06:50:08;100994.41;;;2.76;100.00
73151;BME280;61354;50.758;6.106;2024-01-27T06:52:52;100994.94;;;2.72;100.00
73151;BME280;61354;50.758;6.106;2024-01-27T06:55:37;101002.72;;;2.86;99.84
73151;BME280;61354;50.758;6.106;2024-01-27T06:58:21;100997.81;;;2.88;99.63
73151;BME280;61354;50.758;6.106;2024-01-27T07:01:07;100990.09;;;2.85;99.48
73151;BME280;61354;50.758;6.106;2024-01-27T07:03:51;100991.41;;;2.77;100.00
73151;BME280;61354;50.758;6.106;2024-01-27T07:06:35;100994.44;;;2.81;100.00
73151;BME280;61354;50.758;6.106;2024-01-27T07:09:19;100996.69;;;2.84;99.63
73151;BME280;61354;50.758;6.106;2024-01-27T07:12:04;100986.22;;;2.81;99.69
73151;BME280;61354;50.758;6.106;2024-01-27T07:14:48;100990.09;;;2.85;99.91
73151;BME280;61354;50.758;6.106;2024-01-27T07:17:32;100984.47;;;2.69;100.00
73151;BME280;61354;50.758;6.106;2024-01-27T07:20:15;100996.69;;;2.84;99.72
73151;BME280;61354;50.758;6.106;2024-01-27T07:22:59;100999.59;;;2.72;100.00
73151;BME280;61354;50.758;6.106;2024-01-27T07:25:43;101001.53;;;2.77;100.00
73151;BME280;61354;50.758;6.106;2024-01-27T07:28:27;101002.84;;;2.69;100.00
73151;BME280;61354;50.758;6.106;2024-01-27T07:31:13;101016.34;;;2.76;100.00
73151;BME280;61354;50.758;6.106;2024-01-27T07:33:57;101022.41;;;2.78;100.00
73151;BME280;61354;50.758;6.106;2024-01-27T07:36:40;101034.75;;;2.75;99.79
73151;BME280;61354;50.758;6.106;2024-01-27T07:39:24;101029.50;;;2.73;100.00
73151;BME280;61354;50.758;6.106;2024-01-27T07:42:08;101033.31;;;2.72;100.00
73151;BME280;61354;50.758;6.106;2024-01-27T07:44:53;101027.38;;;2.81;99.91
73151;BME280;61354;50.758;6.106;2024-01-27T07:47:37;101026.28;;;2.82;99.89
73151;BME280;61354;50.758;6.106;2024-01-27T07:50:21;101036.69;;;2.80;100.00
73151;BME280;61354;50.758;6.106;2024-01-27T07:53:07;101040.38;;;2.90;99.52
73151;BME280;61354;50.758;6.106;2024-01-27T07:55:51;101042.66;;;2.71;100.00
73151;BME280;61354;50.758;6.106;2024-01-27T07:58:37;101042.72;;;2.82;100.00
73151;BME280;61354;50.758;6.106;2024-01-27T08:01:21;101039.47;;;2.85;99.91
73151;BME280;61354;50.758;6.106;2024-01-27T08:04:05;101046.69;;;2.91;99.58
73151;BME280;61354;50.758;6.106;2024-01-27T08:06:50;101054.28;;;2.84;99.54
73151;BME280;61354;50.758;6.106;2024-01-27T08:09:34;101047.25;;;2.93;99.23
73151;BME280;61354;50.758;6.106;2024-01-27T08:12:18;101056.06;;;2.95;98.78
73151;BME280;61354;50.758;6.106;2024-01-27T08:15:02;101047.56;;;2.96;98.89
73151;BME280;61354;50.758;6.106;2024-01-27T08:17:46;101049.31;;;3.08;99.04
73151;BME280;61354;50.758;6.106;2024-01-27T08:20:30;101051.00;;;3.14;98.48
73151;BME280;61354;50.758;6.106;2024-01-27T08:23:14;101046.72;;;3.65;96.69
73151;BME280;61354;50.758;6.106;2024-01-27T08:25:58;101046.50;;;3.35;97.02
73151;BME280;61354;50.758;6.106;2024-01-27T08:28:42;101041.28;;;3.33;96.62
73151;BME280;61354;50.758;6.106;2024-01-27T08:31:26;101055.16;;;3.16;97.63
73151;BME280;61354;50.758;6.106;2024-01-27T08:34:10;101051.25;;;3.92;93.55
73151;BME280;61354;50.758;6.106;2024-01-27T08:37:01;101061.94;;;4.36;90.64
73151;BME280;61354;50.758;6.106;2024-01-27T08:39:46;101056.28;;;4.05;93.39
73151;BME280;61354;50.758;6.106;2024-01-27T08:42:30;101052.78;;;3.72;92.83
73151;BME280;61354;50.758;6.106;2024-01-27T08:45:14;101056.34;;;4.15;93.47
73151;BME280;61354;50.758;6.106;2024-01-27T08:47:58;101048.38;;;3.66;94.35
73151;BME280;61354;50.758;6.106;2024-01-27T08:50:42;101043.41;;;3.63;93.41
73151;BME280;61354;50.758;6.106;2024-01-27T08:53:26;101039.03;;;3.67;94.05
73151;BME280;61354;50.758;6.106;2024-01-27T08:56:10;101042.88;;;3.66;93.93
73151;BME280;61354;50.758;6.106;2024-01-27T08:58:57;101047.66;;;4.44;90.44
73151;BME280;61354;50.758;6.106;2024-01-27T09:01:41;101035.09;;;4.06;91.14
73151;BME280;61354;50.758;6.106;2024-01-27T09:04:25;101039.97;;;4.56;88.84
73151;BME280;61354;50.758;6.106;2024-01-27T09:07:09;101044.66;;;3.93;91.37
73151;BME280;61354;50.758;6.106;2024-01-27T09:09:53;101042.56;;;3.63;92.28
73151;BME280;61354;50.758;6.106;2024-01-27T09:12:37;101045.66;;;3.71;92.77
73151;BME280;61354;50.758;6.106;2024-01-27T09:15:21;101040.75;;;3.79;92.31
73151;BME280;61354;50.758;6.106;2024-01-27T09:18:05;101035.25;;;3.73;92.62
73151;BME280;61354;50.758;6.106;2024-01-27T09:20:49;101034.25;;;3.95;91.34
73151;BME280;61354;50.758;6.106;2024-01-27T09:23:33;101034.84;;;4.07;90.61
73151;BME280;61354;50.758;6.106;2024-01-27T09:26:17;101048.59;;;4.07;91.38
73151;BME280;61354;50.758;6.106;2024-01-27T09:29:02;101054.66;;;4.14;91.02
73151;BME280;61354;50.758;6.106;2024-01-27T09:31:46;101055.78;;;4.18;89.13
73151;BME280;61354;50.758;6.106;2024-01-27T09:34:30;101050.88;;;4.31;88.21
73151;BME280;61354;50.758;6.106;2024-01-27T09:37:14;101057.84;;;4.54;86.90
73151;BME280;61354;50.758;6.106;2024-01-27T09:39:58;101061.47;;;4.69;84.65
73151;BME280;61354;50.758;6.106;2024-01-27T09:42:50;101055.72;;;4.86;83.71
73151;BME280;61354;50.758;6.106;2024-01-27T09:45:38;101063.16;;;4.86;83.72
73151;BME280;61354;50.758;6.106;2024-01-27T09:48:23;101055.44;;;4.93;83.73
73151;BME280;61354;50.758;6.106;2024-01-27T09:51:08;101057.69;;;5.06;81.49
73151;BME280;61354;50.758;6.106;2024-01-27T09:53:53;101054.09;;;5.16;81.45
73151;BME280;61354;50.758;6.106;2024-01-27T09:56:37;101044.72;;;5.22;80.21
73151;BME280;61354;50.758;6.106;2024-01-27T09:59:22;101044.44;;;5.34;80.35
73151;BME280;61354;50.758;6.106;2024-01-27T10:02:06;101035.63;;;5.42;79.53
73151;BME280;61354;50.758;6.106;2024-01-27T10:04:53;101034.81;;;5.31;77.26
73151;BME280;61354;50.758;6.106;2024-01-27T10:07:39;101045.81;;;5.46;77.12
73151;BME280;61354;50.758;6.106;2024-01-27T10:10:23;101031.75;;;5.43;76.38
73151;BME280;61354;50.758;6.106;2024-01-27T10:13:09;101030.13;;;5.52;75.46
73151;BME280;61354;50.758;6.106;2024-01-27T10:16:04;101041.13;;;5.62;75.29
73151;BME280;61354;50.758;6.106;2024-01-27T10:19:01;101044.16;;;5.61;74.77
73151;BME280;61354;50.758;6.106;2024-01-27T10:21:46;101048.84;;;5.60;73.76
73151;BME280;61354;50.758;6.106;2024-01-27T10:24:31;101043.34;;;5.60;72.15
73151;BME280;61354;50.758;6.106;2024-01-27T10:27:16;101047.44;;;5.63;72.11
73151;BME280;61354;50.758;6.106;2024-01-27T10:30:02;101049.38;;;5.72;72.88
73151;BME280;61354;50.758;6.106;2024-01-27T10:32:56;101052.09;;;5.88;72.67
73151;BME280;61354;50.758;6.106;2024-01-27T10:35:43;101047.13;;;5.80;71.99
73151;BME280;61354;50.758;6.106;2024-01-27T10:38:38;101052.34;;;5.96;72.54
73151;BME280;61354;50.758;6.106;2024-01-27T10:41:23;101050.69;;;6.06;71.62
73151;BME280;61354;50.758;6.106;2024-01-27T10:44:09;101049.84;;;6.05;70.26
73151;BME280;61354;50.758;6.106;2024-01-27T10:46:56;101042.66;;;6.14;70.93
73151;BME280;61354;50.758;6.106;2024-01-27T10:49:47;101041.84;;;6.14;71.22
73151;BME280;61354;50.758;6.106;2024-01-27T10:52:32;101037.41;;;6.18;69.21
73151;BME280;61354;50.758;6.106;2024-01-27T10:55:16;101024.97;;;6.20;70.30
73151;BME280;61354;50.758;6.106;2024-01-27T10:58:02;101041.50;;;6.26;70.21
73151;BME280;61354;50.758;6.106;2024-01-27T11:00:48;101053.13;;;6.22;70.03
73151;BME280;61354;50.758;6.106;2024-01-27T11:03:37;101054.72;;;6.39;70.52
73151;BME280;61354;50.758;6.106;2024-01-27T11:06:22;101057.53;;;6.23;69.94
73151;BME280;61354;50.758;6.106;2024-01-27T11:09:08;101063.06;;;6.13;68.93
73151;BME280;61354;50.758;6.106;2024-01-27T11:11:53;101063.56;;;6.26;68.59
73151;BME280;61354;50.758;6.106;2024-01-27T11:14:37;101061.31;;;6.38;69.05
73151;BME280;61354;50.758;6.106;2024-01-27T11:17:21;101056.66;;;6.33;69.64
73151;BME280;61354;50.758;6.106;2024-01-27T11:20:07;101058.88;;;6.26;70.88
73151;BME280;61354;50.758;6.106;2024-01-27T11:22:51;101059.59;;;6.52;69.57
73151;BME280;61354;50.758;6.106;2024-01-27T11:25:35;101061.84;;;6.45;69.35
73151;BME280;61354;50.758;6.106;2024-01-27T11:28:25;101058.53;;;6.48;70.52
73151;BME280;61354;50.758;6.106;2024-01-27T11:31:09;101063.13;;;6.63;70.18
73151;BME280;61354;50.758;6.106;2024-01-27T11:33:54;101064.53;;;6.55;70.11
73151;BME280;61354;50.758;6.106;2024-01-27T11:36:38;101047.38;;;6.68;69.41
73151;BME280;61354;50.758;6.106;2024-01-27T11:39:29;101052.06;;;6.68;69.34
73151;BME280;61354;50.758;6.106;2024-01-27T11:42:14;101056.25;;;6.60;68.61
73151;BME280;61354;50.758;6.106;2024-01-27T11:44:58;101054.47;;;6.80;68.38
73151;BME280;61354;50.758;6.106;2024-01-27T11:47:42;101059.16;;;6.79;67.77
73151;BME280;61354;50.758;6.106;2024-01-27T11:50:27;101064.94;;;6.83;68.19
73151;BME280;61354;50.758;6.106;2024-01-27T11:53:11;101062.91;;;6.98;66.84
73151;BME280;61354;50.758;6.106;2024-01-27T11:55:55;101058.28;;;6.89;67.76
73151;BME280;61354;50.758;6.106;2024-01-27T11:58:49;101054.66;;;6.93;67.06
73151;BME280;61354;50.758;6.106;2024-01-27T12:01:33;101051.16;;;7.17;67.18
73151;BME280;61354;50.758;6.106;2024-01-27T12:04:18;101049.00;;;7.14;65.96
73151;BME280;61354;50.758;6.106;2024-01-27T12:07:02;101046.13;;;7.24;65.31
73151;BME280;61354;50.758;6.106;2024-01-27T12:09:48;101040.56;;;6.95;65.33
73151;BME280;61354;50.758;6.106;2024-01-27T12:12:33;101035.91;;;6.90;67.35
73151;BME280;61354;50.758;6.106;2024-01-27T12:15:17;101022.00;;;7.01;66.01
73151;BME280;61354;50.758;6.106;2024-01-27T12:18:04;101026.97;;;7.04;65.06
73151;BME280;61354;50.758;6.106;2024-01-27T12:20:54;101030.94;;;7.21;63.80
73151;BME280;61354;50.758;6.106;2024-01-27T12:23:51;101029.13;;;7.41;64.72
73151;BME280;61354;50.758;6.106;2024-01-27T12:26:35;101036.97;;;7.29;63.23
73151;BME280;61354;50.758;6.106;2024-01-27T12:29:23;101025.03;;;7.04;63.29
73151;BME280;61354;50.758;6.106;2024-01-27T12:32:07;101028.13;;;7.32;62.76
73151;BME280;61354;50.758;6.106;2024-01-27T12:34:51;101028.13;;;7.32;62.84
73151;BME280;61354;50.758;6.106;2024-01-27T12:37:36;101017.19;;;7.45;62.91
73151;BME280;61354;50.758;6.106;2024-01-27T12:40:21;101015.75;;;7.53;62.33
73151;BME280;61354;50.758;6.106;2024-01-27T12:43:05;101017.84;;;7.37;61.47
73151;BME280;61354;50.758;6.106;2024-01-27T12:45:49;101003.13;;;7.47;61.79
73151;BME280;61354;50.758;6.106;2024-01-27T12:48:33;101009.06;;;6.96;61.51
73151;BME280;61354;50.758;6.106;2024-01-27T12:51:17;101003.59;;;6.91;61.45
73151;BME280;61354;50.758;6.106;2024-01-27T12:54:01;101002.41;;;7.02;61.07
73151;BME280;61354;50.758;6.106;2024-01-27T12:56:44;101009.16;;;7.20;61.78
73151;BME280;61354;50.758;6.106;2024-01-27T12:59:28;100997.78;;;7.27;62.30
73151;BME280;61354;50.758;6.106;2024-01-27T13:02:12;100996.50;;;7.14;62.03
73151;BME280;61354;50.758;6.106;2024-01-27T13:04:57;100999.34;;;7.04;62.82
73151;BME280;61354;50.758;6.106;2024-01-27T13:07:41;101001.91;;;6.95;61.75
73151;BME280;61354;50.758;6.106;2024-01-27T13:10:25;100987.44;;;7.37;61.00
73151;BME280;61354;50.758;6.106;2024-01-27T13:13:09;100987.72;;;7.36;59.85
73151;BME280;61354;50.758;6.106;2024-01-27T13:15:53;100988.28;;;7.62;60.18
73151;BME280;61354;50.758;6.106;2024-01-27T13:18:37;100986.53;;;7.47;59.22
73151;BME280;61354;50.758;6.106;2024-01-27T13:21:21;100991.41;;;7.55;59.27
73151;BME280;61354;50.758;6.106;2024-01-27T13:24:06;100982.28;;;7.55;58.36
73151;BME280;61354;50.758;6.106;2024-01-27T13:26:51;100987.34;;;7.47;59.01
73151;BME280;61354;50.758;6.106;2024-01-27T13:29:36;100992.50;;;7.30;59.01
73151;BME280;61354;50.758;6.106;2024-01-27T13:32:20;100994.66;;;7.33;58.76
73151;BME280;61354;50.758;6.106;2024-01-27T13:35:05;100991.06;;;7.33;60.65
73151;BME280;61354;50.758;6.106;2024-01-27T13:37:49;100994.06;;;7.07;59.93
73151;BME280;61354;50.758;6.106;2024-01-27T13:40:33;100991.56;;;7.40;59.67
73151;BME280;61354;50.758;6.106;2024-01-27T13:43:17;100990.28;;;7.56;59.77
73151;BME280;61354;50.758;6.106;2024-01-27T13:46:01;100978.19;;;7.52;57.97
73151;BME280;61354;50.758;6.106;2024-01-27T13:48:45;100978.75;;;7.49;58.78
73151;BME280;61354;50.758;6.106;2024-01-27T13:51:29;100972.50;;;7.67;59.67
73151;BME280;61354;50.758;6.106;2024-01-27T13:54:13;100965.59;;;7.89;59.28
73151;BME280;61354;50.758;6.106;2024-01-27T13:56:58;100975.47;;;7.95;59.47
73151;BME280;61354;50.758;6.106;2024-01-27T13:59:42;100977.47;;;7.89;57.76
73151;BME280;61354;50.758;6.106;2024-01-27T14:02:26;100981.81;;;7.47;59.43
73151;BME280;61354;50.758;6.106;2024-01-27T14:05:10;100971.44;;;7.34;59.79
73151;BME280;61354;50.758;6.106;2024-01-27T14:07:54;100971.44;;;7.34;59.24
73151;BME280;61354;50.758;6.106;2024-01-27T14:10:38;100970.38;;;7.30;60.15
73151;BME280;61354;50.758;6.106;2024-01-27T14:13:23;100963.97;;;7.35;60.00
73151;BME280;61354;50.758;6.106;2024-01-27T14:16:07;100966.25;;;7.28;59.83
73151;BME280;61354;50.758;6.106;2024-01-27T14:18:51;100963.75;;;7.31;59.68
73151;BME280;61354;50.758;6.106;2024-01-27T14:21:35;100952.69;;;7.31;60.53
73151;BME280;61354;50.758;6.106;2024-01-27T14:24:20;100943.41;;;7.17;59.45
73151;BME280;61354;50.758;6.106;2024-01-27T14:27:08;100945.91;;;7.18;59.52
73151;BME280;61354;50.758;6.106;2024-01-27T14:29:54;100941.19;;;7.19;60.29